sensor_id;sensor_type;location;lat;lon;timestamp;P1;durP1;ratioP1;P2;durP2;ratioP2
41219;SDS011;26951;47.338;9.196;2024-03-02T00:01:32;1.98;;;1.63;;
41219;SDS011;26951;47.338;9.196;2024-03-02T00:04:16;1.58;;;1.33;;
41219;SDS011;26951;47.338;9.196;2024-03-02T00:07:00;1.58;;;1.45;;
41219;SDS011;26951;47.338;9.196;2024-03-02T00:09:45;1.20;;;1.10;;
41219;SDS011;26951;47.338;9.196;2024-03-02T00:12:29;2.42;;;1.60;;
41219;SDS011;26951;47.338;9.196;2024-03-02T00:15:39;1.42;;;1.33;;
41219;SDS011;26951;47.338;9.196;2024-03-02T00:18:18;1.65;;;1.55;;
41219;SDS011;26951;47.338;9.196;2024-03-02T00:21:05;2.47;;;1.40;;
41219;SDS011;26951;47.338;9.196;2024-03-02T00:23:52;1.30;;;1.20;;
41219;SDS011;26951;47.338;9.196;2024-03-02T00:26:36;1.70;;;1.20;;
41219;SDS011;26951;47.338;9.196;2024-03-02T00:29:21;1.20;;;1.10;;
41219;SDS011;26951;47.338;9.196;2024-03-02T00:32:05;1.42;;;1.20;;
41219;SDS011;26951;47.338;9.196;2024-03-02T00:34:59;1.10;;;1.00;;
41219;SDS011;26951;47.338;9.196;2024-03-02T00:37:43;1.02;;;0.90;;
41219;SDS011;26951;47.338;9.196;2024-03-02T00:40:27;0.80;;;0.80;;
41219;SDS011;26951;47.338;9.196;2024-03-02T00:43:22;1.02;;;1.00;;
41219;SDS011;26951;47.338;9.196;2024-03-02T00:46:24;1.85;;;0.82;;
41219;SDS011;26951;47.338;9.196;2024-03-02T00:52:06;1.25;;;0.82;;
41219;SDS011;26951;47.338;9.196;2024-03-02T00:54:51;0.65;;;0.65;;
41219;SDS011;26951;47.338;9.196;2024-03-02T00:57:35;0.60;;;0.60;;
41219;SDS011;26951;47.338;9.196;2024-03-02T01:00:19;1.00;;;0.90;;
41219;SDS011;26951;47.338;9.196;2024-03-02T01:03:22;0.88;;;0.85;;
41219;SDS011;26951;47.338;9.196;2024-03-02T01:06:06;0.85;;;0.85;;
41219;SDS011;26951;47.338;9.196;2024-03-02T01:08:51;3.35;;;0.90;;
41219;SDS011;26951;47.338;9.196;2024-03-02T01:11:35;0.80;;;0.80;;
41219;SDS011;26951;47.338;9.196;2024-03-02T01:14:19;0.60;;;0.60;;
41219;SDS011;26951;47.338;9.196;2024-03-02T01:17:04;0.60;;;0.60;;
41219;SDS011;26951;47.338;9.196;2024-03-02T01:19:48;0.70;;;0.70;;
41219;SDS011;26951;47.338;9.196;2024-03-02T01:22:32;0.75;;;0.70;;
41219;SDS011;26951;47.338;9.196;2024-03-02T01:25:16;0.65;;;0.65;;
41219;SDS011;26951;47.338;9.196;2024-03-02T01:28:01;2.03;;;0.70;;
41219;SDS011;26951;47.338;9.196;2024-03-02T01:30:45;0.73;;;0.73;;
41219;SDS011;26951;47.338;9.196;2024-03-02T01:33:30;0.85;;;0.85;;
41219;SDS011;26951;47.338;9.196;2024-03-02T01:36:14;0.50;;;0.50;;
41219;SDS011;26951;47.338;9.196;2024-03-02T01:39:00;0.65;;;0.65;;
41219;SDS011;26951;47.338;9.196;2024-03-02T01:41:44;0.75;;;0.75;;
41219;SDS011;26951;47.338;9.196;2024-03-02T01:44:29;0.80;;;0.80;;
41219;SDS011;26951;47.338;9.196;2024-03-02T01:47:13;0.80;;;0.80;;
41219;SDS011;26951;47.338;9.196;2024-03-02T01:49:57;1.52;;;1.02;;
41219;SDS011;26951;47.338;9.196;2024-03-02T01:52:42;1.15;;;0.93;;
41219;SDS011;26951;47.338;9.196;2024-03-02T01:55:27;1.05;;;1.00;;
41219;SDS011;26951;47.338;9.196;2024-03-02T01:58:13;0.90;;;0.90;;
41219;SDS011;26951;47.338;9.196;2024-03-02T02:06:44;0.90;;;0.90;;
41219;SDS011;26951;47.338;9.196;2024-03-02T02:09:28;0.93;;;0.90;;
41219;SDS011;26951;47.338;9.196;2024-03-02T02:12:13;1.30;;;1.20;;
41219;SDS011;26951;47.338;9.196;2024-03-02T02:14:59;1.05;;;1.00;;
41219;SDS011;26951;47.338;9.196;2024-03-02T02:17:43;0.93;;;0.80;;
41219;SDS011;26951;47.338;9.196;2024-03-02T02:20:27;0.73;;;0.73;;
41219;SDS011;26951;47.338;9.196;2024-03-02T02:23:11;0.80;;;0.80;;
41219;SDS011;26951;47.338;9.196;2024-03-02T02:25:57;0.85;;;0.85;;
41219;SDS011;26951;47.338;9.196;2024-03-02T02:28:41;1.00;;;1.00;;
41219;SDS011;26951;47.338;9.196;2024-03-02T02:31:40;0.80;;;0.80;;
41219;SDS011;26951;47.338;9.196;2024-03-02T02:34:25;0.95;;;0.85;;
41219;SDS011;26951;47.338;9.196;2024-03-02T02:37:09;0.70;;;0.70;;
41219;SDS011;26951;47.338;9.196;2024-03-02T02:39:53;1.35;;;1.25;;
41219;SDS011;26951;47.338;9.196;2024-03-02T02:42:37;0.90;;;0.85;;
41219;SDS011;26951;47.338;9.196;2024-03-02T02:45:21;0.70;;;0.70;;
41219;SDS011;26951;47.338;9.196;2024-03-02T02:48:05;2.28;;;0.93;;
41219;SDS011;26951;47.338;9.196;2024-03-02T02:50:49;1.10;;;1.00;;
41219;SDS011;26951;47.338;9.196;2024-03-02T02:53:33;0.85;;;0.85;;
41219;SDS011;26951;47.338;9.196;2024-03-02T02:56:19;1.52;;;1.33;;
41219;SDS011;26951;47.338;9.196;2024-03-02T02:59:03;0.90;;;0.90;;
41219;SDS011;26951;47.338;9.196;2024-03-02T03:01:47;1.20;;;1.10;;
41219;SDS011;26951;47.338;9.196;2024-03-02T03:04:31;1.27;;;1.00;;
41219;SDS011;26951;47.338;9.196;2024-03-02T03:07:15;1.20;;;1.10;;
41219;SDS011;26951;47.338;9.196;2024-03-02T03:09:59;1.73;;;1.30;;
41219;SDS011;26951;47.338;9.196;2024-03-02T03:12:44;1.02;;;0.90;;
41219;SDS011;26951;47.338;9.196;2024-03-02T03:15:28;1.05;;;0.95;;
41219;SDS011;26951;47.338;9.196;2024-03-02T03:18:12;1.30;;;1.20;;
41219;SDS011;26951;47.338;9.196;2024-03-02T03:20:56;1.58;;;1.13;;
41219;SDS011;26951;47.338;9.196;2024-03-02T03:23:40;1.40;;;1.00;;
41219;SDS011;26951;47.338;9.196;2024-03-02T03:26:24;1.50;;;1.40;;
41219;SDS011;26951;47.338;9.196;2024-03-02T03:29:08;1.48;;;1.30;;
41219;SDS011;26951;47.338;9.196;2024-03-02T03:31:52;1.20;;;1.10;;
41219;SDS011;26951;47.338;9.196;2024-03-02T03:34:36;1.60;;;1.50;;
41219;SDS011;26951;47.338;9.196;2024-03-02T03:37:20;1.40;;;1.10;;
41219;SDS011;26951;47.338;9.196;2024-03-02T03:40:05;1.80;;;1.38;;
41219;SDS011;26951;47.338;9.196;2024-03-02T03:42:55;2.05;;;1.60;;
41219;SDS011;26951;47.338;9.196;2024-03-02T03:45:40;1.38;;;1.02;;
41219;SDS011;26951;47.338;9.196;2024-03-02T03:48:25;1.90;;;1.42;;
41219;SDS011;26951;47.338;9.196;2024-03-02T03:51:14;1.92;;;1.40;;
41219;SDS011;26951;47.338;9.196;2024-03-02T03:53:58;1.95;;;1.65;;
41219;SDS011;26951;47.338;9.196;2024-03-02T03:56:42;2.45;;;1.73;;
41219;SDS011;26951;47.338;9.196;2024-03-02T03:59:26;2.15;;;1.95;;
41219;SDS011;26951;47.338;9.196;2024-03-02T04:02:10;1.92;;;1.58;;
41219;SDS011;26951;47.338;9.196;2024-03-02T04:04:56;1.75;;;1.52;;
41219;SDS011;26951;47.338;9.196;2024-03-02T04:07:40;2.15;;;1.52;;
41219;SDS011;26951;47.338;9.196;2024-03-02T04:10:24;2.05;;;1.70;;
41219;SDS011;26951;47.338;9.196;2024-03-02T04:13:08;1.95;;;1.50;;
41219;SDS011;26951;47.338;9.196;2024-03-02T04:15:53;2.35;;;1.73;;
41219;SDS011;26951;47.338;9.196;2024-03-02T04:18:37;2.22;;;2.00;;
41219;SDS011;26951;47.338;9.196;2024-03-02T04:21:23;1.80;;;1.63;;
41219;SDS011;26951;47.338;9.196;2024-03-02T04:24:07;2.85;;;1.88;;
41219;SDS011;26951;47.338;9.196;2024-03-02T04:26:52;2.10;;;1.85;;
41219;SDS011;26951;47.338;9.196;2024-03-02T04:29:36;1.63;;;1.42;;
41219;SDS011;26951;47.338;9.196;2024-03-02T04:32:20;3.15;;;1.63;;
41219;SDS011;26951;47.338;9.196;2024-03-02T04:35:04;2.00;;;1.63;;
41219;SDS011;26951;47.338;9.196;2024-03-02T04:37:51;1.63;;;1.50;;
41219;SDS011;26951;47.338;9.196;2024-03-02T04:40:35;2.28;;;1.67;;
41219;SDS011;26951;47.338;9.196;2024-03-02T04:43:19;2.70;;;1.60;;
41219;SDS011;26951;47.338;9.196;2024-03-02T04:46:04;1.83;;;1.30;;
41219;SDS011;26951;47.338;9.196;2024-03-02T04:48:50;1.45;;;1.35;;
41219;SDS011;26951;47.338;9.196;2024-03-02T04:51:39;1.73;;;1.48;;
41219;SDS011;26951;47.338;9.196;2024-03-02T04:54:23;1.83;;;1.50;;
41219;SDS011;26951;47.338;9.196;2024-03-02T04:57:08;1.67;;;1.38;;
41219;SDS011;26951;47.338;9.196;2024-03-02T04:59:52;1.88;;;1.60;;
41219;SDS011;26951;47.338;9.196;2024-03-02T05:02:36;1.63;;;1.45;;
41219;SDS011;26951;47.338;9.196;2024-03-02T05:05:20;1.50;;;1.30;;
41219;SDS011;26951;47.338;9.196;2024-03-02T05:08:04;1.35;;;1.20;;
41219;SDS011;26951;47.338;9.196;2024-03-02T05:10:48;2.05;;;1.50;;
41219;SDS011;26951;47.338;9.196;2024-03-02T05:13:32;1.25;;;1.10;;
41219;SDS011;26951;47.338;9.196;2024-03-02T05:16:16;1.60;;;1.40;;
41219;SDS011;26951;47.338;9.196;2024-03-02T05:19:00;2.78;;;1.20;;
41219;SDS011;26951;47.338;9.196;2024-03-02T05:21:44;1.08;;;1.00;;
41219;SDS011;26951;47.338;9.196;2024-03-02T05:24:28;1.10;;;1.00;;
41219;SDS011;26951;47.338;9.196;2024-03-02T05:27:12;2.42;;;1.60;;
41219;SDS011;26951;47.338;9.196;2024-03-02T05:29:56;1.80;;;1.55;;
41219;SDS011;26951;47.338;9.196;2024-03-02T05:32:41;1.63;;;1.23;;
41219;SDS011;26951;47.338;9.196;2024-03-02T05:35:25;2.47;;;1.10;;
41219;SDS011;26951;47.338;9.196;2024-03-02T05:38:09;1.10;;;0.80;;
41219;SDS011;26951;47.338;9.196;2024-03-02T05:40:53;4.75;;;2.25;;
41219;SDS011;26951;47.338;9.196;2024-03-02T05:43:37;2.30;;;1.67;;
41219;SDS011;26951;47.338;9.196;2024-03-02T05:46:21;2.47;;;1.83;;
41219;SDS011;26951;47.338;9.196;2024-03-02T05:49:05;1.17;;;1.08;;
41219;SDS011;26951;47.338;9.196;2024-03-02T05:51:53;1.67;;;1.33;;
41219;SDS011;26951;47.338;9.196;2024-03-02T05:54:37;1.80;;;1.10;;
41219;SDS011;26951;47.338;9.196;2024-03-02T05:57:22;3.78;;;2.13;;
41219;SDS011;26951;47.338;9.196;2024-03-02T06:00:24;3.47;;;2.00;;
41219;SDS011;26951;47.338;9.196;2024-03-02T06:03:09;3.25;;;2.13;;
41219;SDS011;26951;47.338;9.196;2024-03-02T06:05:53;2.92;;;1.60;;
41219;SDS011;26951;47.338;9.196;2024-03-02T06:08:38;5.07;;;2.05;;
41219;SDS011;26951;47.338;9.196;2024-03-02T06:11:21;4.13;;;2.50;;
41219;SDS011;26951;47.338;9.196;2024-03-02T06:14:06;2.08;;;1.42;;
41219;SDS011;26951;47.338;9.196;2024-03-02T06:16:51;1.95;;;1.30;;
41219;SDS011;26951;47.338;9.196;2024-03-02T06:19:35;2.47;;;1.40;;
41219;SDS011;26951;47.338;9.196;2024-03-02T06:22:19;1.98;;;1.00;;
41219;SDS011;26951;47.338;9.196;2024-03-02T06:25:05;2.10;;;1.50;;
41219;SDS011;26951;47.338;9.196;2024-03-02T06:27:49;2.33;;;1.63;;
41219;SDS011;26951;47.338;9.196;2024-03-02T06:30:33;3.83;;;2.33;;
41219;SDS011;26951;47.338;9.196;2024-03-02T06:33:17;2.25;;;1.63;;
41219;SDS011;26951;47.338;9.196;2024-03-02T06:36:02;1.40;;;1.23;;
41219;SDS011;26951;47.338;9.196;2024-03-02T06:38:47;2.00;;;1.40;;
41219;SDS011;26951;47.338;9.196;2024-03-02T06:41:31;1.20;;;1.10;;
41219;SDS011;26951;47.338;9.196;2024-03-02T06:44:15;1.40;;;1.27;;
41219;SDS011;26951;47.338;9.196;2024-03-02T06:46:59;2.90;;;1.98;;
41219;SDS011;26951;47.338;9.196;2024-03-02T06:49:43;1.10;;;1.00;;
41219;SDS011;26951;47.338;9.196;2024-03-02T06:52:27;1.25;;;1.05;;
41219;SDS011;26951;47.338;9.196;2024-03-02T06:55:11;0.93;;;0.90;;
41219;SDS011;26951;47.338;9.196;2024-03-02T06:57:55;1.60;;;1.17;;
41219;SDS011;26951;47.338;9.196;2024-03-02T07:00:39;0.95;;;0.90;;
41219;SDS011;26951;47.338;9.196;2024-03-02T07:03:23;2.08;;;1.48;;
41219;SDS011;26951;47.338;9.196;2024-03-02T07:06:07;2.03;;;1.63;;
41219;SDS011;26951;47.338;9.196;2024-03-02T07:08:51;1.83;;;1.33;;
41219;SDS011;26951;47.338;9.196;2024-03-02T07:11:36;2.42;;;1.50;;
41219;SDS011;26951;47.338;9.196;2024-03-02T07:14:25;2.42;;;1.20;;
41219;SDS011;26951;47.338;9.196;2024-03-02T07:17:30;2.00;;;1.58;;
41219;SDS011;26951;47.338;9.196;2024-03-02T07:20:14;1.10;;;1.00;;
41219;SDS011;26951;47.338;9.196;2024-03-02T07:22:58;0.82;;;0.73;;
41219;SDS011;26951;47.338;9.196;2024-03-02T07:25:42;1.30;;;1.20;;
41219;SDS011;26951;47.338;9.196;2024-03-02T07:28:26;1.55;;;1.30;;
41219;SDS011;26951;47.338;9.196;2024-03-02T07:31:11;1.77;;;1.25;;
41219;SDS011;26951;47.338;9.196;2024-03-02T07:33:55;2.22;;;1.83;;
41219;SDS011;26951;47.338;9.196;2024-03-02T07:36:40;2.63;;;2.03;;
41219;SDS011;26951;47.338;9.196;2024-03-02T07:39:24;1.40;;;1.30;;
41219;SDS011;26951;47.338;9.196;2024-03-02T07:42:09;1.15;;;1.00;;
41219;SDS011;26951;47.338;9.196;2024-03-02T07:44:53;2.45;;;1.20;;
41219;SDS011;26951;47.338;9.196;2024-03-02T07:47:37;1.73;;;1.63;;
41219;SDS011;26951;47.338;9.196;2024-03-02T07:50:21;1.48;;;0.73;;
41219;SDS011;26951;47.338;9.196;2024-03-02T07:53:06;1.02;;;0.93;;
41219;SDS011;26951;47.338;9.196;2024-03-02T07:55:51;1.63;;;1.52;;
41219;SDS011;26951;47.338;9.196;2024-03-02T07:58:35;1.55;;;1.30;;
41219;SDS011;26951;47.338;9.196;2024-03-02T08:01:20;1.60;;;1.30;;
41219;SDS011;26951;47.338;9.196;2024-03-02T08:04:05;2.90;;;1.20;;
41219;SDS011;26951;47.338;9.196;2024-03-02T08:06:50;2.50;;;1.38;;
41219;SDS011;26951;47.338;9.196;2024-03-02T08:09:34;1.63;;;1.08;;
41219;SDS011;26951;47.338;9.196;2024-03-02T08:12:18;1.25;;;1.15;;
41219;SDS011;26951;47.338;9.196;2024-03-02T08:15:03;1.20;;;1.10;;
41219;SDS011;26951;47.338;9.196;2024-03-02T08:17:47;0.82;;;0.82;;
41219;SDS011;26951;47.338;9.196;2024-03-02T08:20:41;1.23;;;1.00;;
41219;SDS011;26951;47.338;9.196;2024-03-02T08:23:25;1.30;;;1.13;;
41219;SDS011;26951;47.338;9.196;2024-03-02T08:26:09;1.40;;;1.30;;
41219;SDS011;26951;47.338;9.196;2024-03-02T08:28:54;1.50;;;0.95;;
41219;SDS011;26951;47.338;9.196;2024-03-02T08:31:39;2.10;;;1.10;;
41219;SDS011;26951;47.338;9.196;2024-03-02T08:34:23;1.20;;;1.10;;
41219;SDS011;26951;47.338;9.196;2024-03-02T08:37:07;1.10;;;1.00;;
41219;SDS011;26951;47.338;9.196;2024-03-02T08:39:52;1.38;;;1.27;;
41219;SDS011;26951;47.338;9.196;2024-03-02T08:42:36;1.40;;;1.30;;
41219;SDS011;26951;47.338;9.196;2024-03-02T08:45:20;1.35;;;1.25;;
41219;SDS011;26951;47.338;9.196;2024-03-02T08:48:06;1.10;;;1.00;;
41219;SDS011;26951;47.338;9.196;2024-03-02T08:50:51;1.40;;;1.05;;
41219;SDS011;26951;47.338;9.196;2024-03-02T08:53:36;1.20;;;0.70;;
41219;SDS011;26951;47.338;9.196;2024-03-02T08:56:21;0.70;;;0.70;;
41219;SDS011;26951;47.338;9.196;2024-03-02T08:59:07;0.43;;;0.43;;
41219;SDS011;26951;47.338;9.196;2024-03-02T09:01:51;1.08;;;0.50;;
41219;SDS011;26951;47.338;9.196;2024-03-02T09:04:35;0.50;;;0.50;;
41219;SDS011;26951;47.338;9.196;2024-03-02T09:07:19;0.55;;;0.40;;
41219;SDS011;26951;47.338;9.196;2024-03-02T09:10:04;1.75;;;0.43;;
41219;SDS011;26951;47.338;9.196;2024-03-02T09:12:51;0.50;;;0.40;;
41219;SDS011;26951;47.338;9.196;2024-03-02T09:15:36;0.32;;;0.32;;
41219;SDS011;26951;47.338;9.196;2024-03-02T09:18:23;0.60;;;0.40;;
41219;SDS011;26951;47.338;9.196;2024-03-02T09:21:07;0.30;;;0.30;;
41219;SDS011;26951;47.338;9.196;2024-03-02T09:23:51;0.40;;;0.38;;
41219;SDS011;26951;47.338;9.196;2024-03-02T09:26:35;0.50;;;0.50;;
41219;SDS011;26951;47.338;9.196;2024-03-02T09:29:19;0.60;;;0.60;;
41219;SDS011;26951;47.338;9.196;2024-03-02T09:32:04;0.70;;;0.45;;
41219;SDS011;26951;47.338;9.196;2024-03-02T09:37:33;0.20;;;0.20;;
41219;SDS011;26951;47.338;9.196;2024-03-02T09:40:20;0.13;;;0.13;;
41219;SDS011;26951;47.338;9.196;2024-03-02T09:43:05;1.17;;;0.30;;
41219;SDS011;26951;47.338;9.196;2024-03-02T09:45:51;1.10;;;0.50;;
41219;SDS011;26951;47.338;9.196;2024-03-02T09:48:36;0.30;;;0.30;;
41219;SDS011;26951;47.338;9.196;2024-03-02T09:51:21;0.57;;;0.50;;
41219;SDS011;26951;47.338;9.196;2024-03-02T09:56:51;1.58;;;0.60;;
41219;SDS011;26951;47.338;9.196;2024-03-02T09:59:35;1.08;;;0.50;;
41219;SDS011;26951;47.338;9.196;2024-03-02T10:02:19;0.63;;;0.40;;
41219;SDS011;26951;47.338;9.196;2024-03-02T10:05:03;0.60;;;0.60;;
41219;SDS011;26951;47.338;9.196;2024-03-02T10:07:56;1.17;;;0.70;;
41219;SDS011;26951;47.338;9.196;2024-03-02T10:10:46;0.80;;;0.60;;
41219;SDS011;26951;47.338;9.196;2024-03-02T10:13:30;0.30;;;0.30;;
41219;SDS011;26951;47.338;9.196;2024-03-02T10:16:14;0.52;;;0.38;;
41219;SDS011;26951;47.338;9.196;2024-03-02T10:22:05;2.15;;;0.55;;
41219;SDS011;26951;47.338;9.196;2024-03-02T10:24:50;0.30;;;0.30;;
41219;SDS011;26951;47.338;9.196;2024-03-02T10:27:34;0.32;;;0.20;;
41219;SDS011;26951;47.338;9.196;2024-03-02T10:30:18;0.55;;;0.47;;
41219;SDS011;26951;47.338;9.196;2024-03-02T10:33:02;0.80;;;0.30;;
41219;SDS011;26951;47.338;9.196;2024-03-02T10:35:47;0.43;;;0.40;;
41219;SDS011;26951;47.338;9.196;2024-03-02T10:38:33;0.70;;;0.50;;
41219;SDS011;26951;47.338;9.196;2024-03-02T10:41:18;0.95;;;0.20;;
41219;SDS011;26951;47.338;9.196;2024-03-02T10:46:47;0.57;;;0.43;;
41219;SDS011;26951;47.338;9.196;2024-03-02T10:49:34;0.82;;;0.60;;
41219;SDS011;26951;47.338;9.196;2024-03-02T10:55:07;0.80;;;0.80;;
41219;SDS011;26951;47.338;9.196;2024-03-02T10:57:53;0.73;;;0.68;;
41219;SDS011;26951;47.338;9.196;2024-03-02T11:00:39;2.80;;;1.30;;
41219;SDS011;26951;47.338;9.196;2024-03-02T11:03:27;1.10;;;1.00;;
41219;SDS011;26951;47.338;9.196;2024-03-02T11:06:17;1.65;;;1.20;;
41219;SDS011;26951;47.338;9.196;2024-03-02T11:09:02;1.83;;;1.20;;
41219;SDS011;26951;47.338;9.196;2024-03-02T11:12:03;2.33;;;1.35;;
41219;SDS011;26951;47.338;9.196;2024-03-02T11:14:52;2.63;;;1.60;;
41219;SDS011;26951;47.338;9.196;2024-03-02T11:17:39;1.60;;;1.30;;
41219;SDS011;26951;47.338;9.196;2024-03-02T11:20:24;2.20;;;1.67;;
41219;SDS011;26951;47.338;9.196;2024-03-02T11:23:10;1.92;;;1.73;;
41219;SDS011;26951;47.338;9.196;2024-03-02T11:25:54;4.03;;;2.20;;
41219;SDS011;26951;47.338;9.196;2024-03-02T11:28:38;2.25;;;1.60;;
41219;SDS011;26951;47.338;9.196;2024-03-02T11:31:22;2.90;;;2.05;;
41219;SDS011;26951;47.338;9.196;2024-03-02T11:34:30;2.53;;;1.80;;
41219;SDS011;26951;47.338;9.196;2024-03-02T11:37:18;2.72;;;2.00;;
41219;SDS011;26951;47.338;9.196;2024-03-02T11:40:06;2.65;;;2.30;;
41219;SDS011;26951;47.338;9.196;2024-03-02T11:42:54;3.28;;;2.28;;
41219;SDS011;26951;47.338;9.196;2024-03-02T11:45:39;2.92;;;2.42;;
41219;SDS011;26951;47.338;9.196;2024-03-02T11:48:27;2.60;;;2.05;;
41219;SDS011;26951;47.338;9.196;2024-03-02T11:53:58;2.50;;;1.70;;
41219;SDS011;26951;47.338;9.196;2024-03-02T11:56:42;2.28;;;1.88;;
41219;SDS011;26951;47.338;9.196;2024-03-02T11:59:27;1.73;;;1.60;;
41219;SDS011;26951;47.338;9.196;2024-03-02T12:02:17;3.22;;;2.38;;
41219;SDS011;26951;47.338;9.196;2024-03-02T12:05:05;3.10;;;1.95;;
41219;SDS011;26951;47.338;9.196;2024-03-02T12:07:49;2.40;;;1.80;;
41219;SDS011;26951;47.338;9.196;2024-03-02T12:10:42;3.28;;;2.38;;
41219;SDS011;26951;47.338;9.196;2024-03-02T12:13:27;2.47;;;1.87;;
41219;SDS011;26951;47.338;9.196;2024-03-02T12:16:11;3.00;;;2.37;;
41219;SDS011;26951;47.338;9.196;2024-03-02T12:18:55;3.78;;;3.17;;
41219;SDS011;26951;47.338;9.196;2024-03-02T12:21:39;3.83;;;3.30;;
41219;SDS011;26951;47.338;9.196;2024-03-02T12:24:24;4.38;;;3.00;;
41219;SDS011;26951;47.338;9.196;2024-03-02T12:27:11;4.38;;;3.35;;
41219;SDS011;26951;47.338;9.196;2024-03-02T12:32:40;3.25;;;2.83;;
41219;SDS011;26951;47.338;9.196;2024-03-02T12:35:25;4.90;;;3.50;;
41219;SDS011;26951;47.338;9.196;2024-03-02T12:38:09;4.05;;;3.22;;
41219;SDS011;26951;47.338;9.196;2024-03-02T12:40:54;4.63;;;3.40;;
41219;SDS011;26951;47.338;9.196;2024-03-02T12:43:38;4.43;;;3.60;;
41219;SDS011;26951;47.338;9.196;2024-03-02T12:46:22;4.75;;;3.70;;
41219;SDS011;26951;47.338;9.196;2024-03-02T12:49:10;5.20;;;3.65;;
41219;SDS011;26951;47.338;9.196;2024-03-02T12:51:55;4.82;;;3.90;;
41219;SDS011;26951;47.338;9.196;2024-03-02T12:54:41;4.25;;;3.85;;
41219;SDS011;26951;47.338;9.196;2024-03-02T12:57:26;4.18;;;3.72;;
41219;SDS011;26951;47.338;9.196;2024-03-02T13:00:11;4.30;;;3.88;;
41219;SDS011;26951;47.338;9.196;2024-03-02T13:02:56;5.63;;;4.75;;
41219;SDS011;26951;47.338;9.196;2024-03-02T13:05:48;5.90;;;4.32;;
41219;SDS011;26951;47.338;9.196;2024-03-02T13:08:34;5.65;;;4.78;;
41219;SDS011;26951;47.338;9.196;2024-03-02T13:11:18;5.53;;;4.82;;
41219;SDS011;26951;47.338;9.196;2024-03-02T13:14:04;5.55;;;4.38;;
41219;SDS011;26951;47.338;9.196;2024-03-02T13:16:49;5.38;;;4.65;;
41219;SDS011;26951;47.338;9.196;2024-03-02T13:19:36;4.45;;;3.90;;
41219;SDS011;26951;47.338;9.196;2024-03-02T13:22:20;5.90;;;3.83;;
41219;SDS011;26951;47.338;9.196;2024-03-02T13:25:05;4.68;;;4.20;;
41219;SDS011;26951;47.338;9.196;2024-03-02T13:27:51;5.13;;;4.63;;
41219;SDS011;26951;47.338;9.196;2024-03-02T13:30:35;3.80;;;3.45;;
41219;SDS011;26951;47.338;9.196;2024-03-02T13:33:20;3.80;;;3.40;;
41219;SDS011;26951;47.338;9.196;2024-03-02T13:36:08;3.72;;;3.35;;
41219;SDS011;26951;47.338;9.196;2024-03-02T13:38:52;3.50;;;3.20;;
41219;SDS011;26951;47.338;9.196;2024-03-02T13:41:36;4.30;;;3.25;;
41219;SDS011;26951;47.338;9.196;2024-03-02T13:44:20;4.57;;;3.80;;
41219;SDS011;26951;47.338;9.196;2024-03-02T13:47:05;4.68;;;3.90;;
41219;SDS011;26951;47.338;9.196;2024-03-02T13:49:49;5.72;;;4.22;;
41219;SDS011;26951;47.338;9.196;2024-03-02T13:52:33;5.03;;;4.15;;
41219;SDS011;26951;47.338;9.196;2024-03-02T13:55:17;4.65;;;4.18;;
41219;SDS011;26951;47.338;9.196;2024-03-02T13:58:01;4.15;;;3.72;;
41219;SDS011;26951;47.338;9.196;2024-03-02T14:00:46;3.90;;;3.50;;
41219;SDS011;26951;47.338;9.196;2024-03-02T14:03:31;4.97;;;3.22;;
41219;SDS011;26951;47.338;9.196;2024-03-02T14:06:15;4.90;;;3.67;;
41219;SDS011;26951;47.338;9.196;2024-03-02T14:08:59;3.50;;;3.20;;
41219;SDS011;26951;47.338;9.196;2024-03-02T14:11:43;3.90;;;3.42;;
41219;SDS011;26951;47.338;9.196;2024-03-02T14:14:27;3.95;;;3.28;;
41219;SDS011;26951;47.338;9.196;2024-03-02T14:17:11;3.20;;;2.90;;
41219;SDS011;26951;47.338;9.196;2024-03-02T14:19:58;3.38;;;3.08;;
41219;SDS011;26951;47.338;9.196;2024-03-02T14:22:42;3.13;;;2.83;;
41219;SDS011;26951;47.338;9.196;2024-03-02T14:25:27;3.92;;;3.10;;
41219;SDS011;26951;47.338;9.196;2024-03-02T14:28:14;3.90;;;3.50;;
41219;SDS011;26951;47.338;9.196;2024-03-02T14:31:00;3.35;;;3.05;;
41219;SDS011;26951;47.338;9.196;2024-03-02T14:33:45;3.30;;;3.00;;
41219;SDS011;26951;47.338;9.196;2024-03-02T14:36:29;3.40;;;2.83;;
41219;SDS011;26951;47.338;9.196;2024-03-02T14:39:13;5.38;;;3.83;;
41219;SDS011;26951;47.338;9.196;2024-03-02T14:41:57;4.00;;;3.60;;
41219;SDS011;26951;47.338;9.196;2024-03-02T14:44:42;6.45;;;2.97;;
41219;SDS011;26951;47.338;9.196;2024-03-02T14:47:26;4.05;;;2.60;;
41219;SDS011;26951;47.338;9.196;2024-03-02T14:50:10;3.05;;;2.75;;
41219;SDS011;26951;47.338;9.196;2024-03-02T14:52:55;5.03;;;2.85;;
41219;SDS011;26951;47.338;9.196;2024-03-02T14:55:43;3.75;;;2.67;;
41219;SDS011;26951;47.338;9.196;2024-03-02T14:58:27;3.10;;;2.65;;
41219;SDS011;26951;47.338;9.196;2024-03-02T15:01:11;3.33;;;2.88;;
41219;SDS011;26951;47.338;9.196;2024-03-02T15:03:56;3.75;;;2.85;;
41219;SDS011;26951;47.338;9.196;2024-03-02T15:06:40;3.53;;;3.10;;
41219;SDS011;26951;47.338;9.196;2024-03-02T15:09:24;3.40;;;2.70;;
41219;SDS011;26951;47.338;9.196;2024-03-02T15:12:08;3.78;;;2.70;;
41219;SDS011;26951;47.338;9.196;2024-03-02T15:14:56;3.28;;;2.67;;
41219;SDS011;26951;47.338;9.196;2024-03-02T15:17:40;2.70;;;2.25;;
41219;SDS011;26951;47.338;9.196;2024-03-02T15:20:25;2.78;;;2.47;;
41219;SDS011;26951;47.338;9.196;2024-03-02T15:23:09;3.35;;;2.90;;
41219;SDS011;26951;47.338;9.196;2024-03-02T15:25:53;2.60;;;2.40;;
41219;SDS011;26951;47.338;9.196;2024-03-02T15:28:37;2.70;;;1.98;;
41219;SDS011;26951;47.338;9.196;2024-03-02T15:31:21;4.13;;;2.27;;
41219;SDS011;26951;47.338;9.196;2024-03-02T15:34:05;2.45;;;2.25;;
41219;SDS011;26951;47.338;9.196;2024-03-02T15:36:51;3.20;;;2.90;;
41219;SDS011;26951;47.338;9.196;2024-03-02T15:39:35;2.40;;;2.20;;
41219;SDS011;26951;47.338;9.196;2024-03-02T15:42:19;2.88;;;2.45;;
41219;SDS011;26951;47.338;9.196;2024-03-02T15:45:07;2.60;;;2.10;;
41219;SDS011;26951;47.338;9.196;2024-03-02T15:47:51;2.60;;;2.40;;
41219;SDS011;26951;47.338;9.196;2024-03-02T15:50:35;3.55;;;2.72;;
41219;SDS011;26951;47.338;9.196;2024-03-02T15:53:21;3.72;;;2.00;;
41219;SDS011;26951;47.338;9.196;2024-03-02T15:56:05;2.55;;;2.17;;
41219;SDS011;26951;47.338;9.196;2024-03-02T15:58:49;2.58;;;2.10;;
41219;SDS011;26951;47.338;9.196;2024-03-02T16:01:33;2.63;;;2.30;;
41219;SDS011;26951;47.338;9.196;2024-03-02T16:04:17;2.63;;;2.30;;
41219;SDS011;26951;47.338;9.196;2024-03-02T16:07:01;2.40;;;2.10;;
41219;SDS011;26951;47.338;9.196;2024-03-02T16:09:46;3.05;;;2.00;;
41219;SDS011;26951;47.338;9.196;2024-03-02T16:12:31;3.05;;;2.22;;
41219;SDS011;26951;47.338;9.196;2024-03-02T16:15:15;2.90;;;2.40;;
41219;SDS011;26951;47.338;9.196;2024-03-02T16:17:59;2.38;;;2.10;;
41219;SDS011;26951;47.338;9.196;2024-03-02T16:20:45;2.42;;;2.15;;
41219;SDS011;26951;47.338;9.196;2024-03-02T16:23:29;2.90;;;2.60;;
41219;SDS011;26951;47.338;9.196;2024-03-02T16:26:13;2.83;;;2.25;;
41219;SDS011;26951;47.338;9.196;2024-03-02T16:29:00;5.00;;;3.00;;
41219;SDS011;26951;47.338;9.196;2024-03-02T16:31:44;3.17;;;2.30;;
41219;SDS011;26951;47.338;9.196;2024-03-02T16:34:29;2.80;;;2.33;;
41219;SDS011;26951;47.338;9.196;2024-03-02T16:37:13;2.67;;;2.30;;
41219;SDS011;26951;47.338;9.196;2024-03-02T16:39:57;2.88;;;2.22;;
41219;SDS011;26951;47.338;9.196;2024-03-02T16:42:41;3.47;;;2.33;;
41219;SDS011;26951;47.338;9.196;2024-03-02T16:45:25;3.42;;;2.10;;
41219;SDS011;26951;47.338;9.196;2024-03-02T16:48:09;3.90;;;2.65;;
41219;SDS011;26951;47.338;9.196;2024-03-02T16:50:53;4.05;;;2.78;;
41219;SDS011;26951;47.338;9.196;2024-03-02T16:53:37;3.15;;;2.53;;
41219;SDS011;26951;47.338;9.196;2024-03-02T16:59:07;4.10;;;2.67;;
41219;SDS011;26951;47.338;9.196;2024-03-02T17:01:52;3.65;;;2.35;;
41219;SDS011;26951;47.338;9.196;2024-03-02T17:04:37;3.30;;;2.70;;
41219;SDS011;26951;47.338;9.196;2024-03-02T17:07:21;3.30;;;2.97;;